Greenland, Arkansas
Current Conditions -  °F | °C
As of 4:42 AM on Sunday 26 Oct 2014 (Local Time) from KFYV Reporting Station
Moderate Fog Moderate Fog  
Wind Chill: 53°   Ceiling: Unl
Heat Index: 53°   Visibility: 0.5mi
Dew Point: 53°   Wind: 0mph
Humidity: 100%   Direction: NA
Pressure: 30.02"   Gusts: NA
Location:  35.99°N, 94.18°W
Report Text: KFYV 260942Z AUTO 00000KT 1/2SM FG CLR 12/12 A3002 RMK AO2 T01170117
Loading
Personal Weather Stations






























Interactive Weather Map
Tropical Storm Tracking
New forecast layout! Learn more

10-Day Weather Forecast

Advertisements
Track Severe Weather on mobile